Latest Weather Observations for Rhyll

IDV60901

Issued at 11:11 pm EST Thursday 2 July 2020 (issued every 10 minutes, with the page automatically refreshed every 10 minutes)

About weather observations | Map of Melbourne area stations | Latest observations for Melbourne area | Other Formats
Station Details ID: 086373 Name: RHYLL Lat: -38.46 Lon: 145.31 Height: 13.4 m
Data from the previous 72 hours. | See also: Recent months at Rhyll
Date/Time
EST
Temp
°C
App
Temp
°C
Dew
Point
°C
Rel
Hum
%
Delta-T
°C
Wind Press
QNH
hPa
Press
MSL
hPa
Rain since
9am
mm
Dir  Spd
km/h
Gust
km/h
Spd
kts
Gust
kts
02/11:00pm 10.7 7.2 5.3 69 2.5 NW 13 22 7 12 1015.7 1015.7 0.0
02/10:30pm 10.4 7.6 5.2 70 2.4 NW 9 17 5 9 1015.5 1015.5 0.0
02/10:00pm 10.4 7.1 4.3 66 2.7 NW 11 22 6 12 1015.4 1015.4 0.0
02/09:30pm 10.4 7.5 4.5 67 2.6 WNW 9 17 5 9 1015.4 1015.4 0.0
02/09:00pm 10.6 7.5 5.4 70 2.4 WNW 11 24 6 13 1015.1 1015.1 0.0
02/08:30pm 11.3 6.6 6.0 70 2.5 NNW 20 30 11 16 1014.7 1014.7 0.0
02/08:00pm 11.3 6.5 5.8 69 2.6 NNW 20 30 11 16 1014.4 1014.4 0.0
02/07:30pm 10.9 8.5 5.2 68 2.6 NNW 7 15 4 8 1014.4 1014.4 0.0
02/07:00pm 10.8 8.4 4.5 65 2.8 WNW 6 13 3 7 1014.5 1014.5 0.0
02/06:30pm 11.0 8.5 4.5 64 2.9 WNW 7 17 4 9 1014.1 1014.1 0.0
02/06:00pm 11.3 8.3 4.3 62 3.1 WNW 9 19 5 10 1014.0 1014.0 0.0
02/05:30pm 11.1 9.3 5.2 67 2.7 WNW 4 17 2 9 1013.7 1013.7 0.0
02/05:00pm 11.2 8.3 4.4 63 3.1 WNW 9 17 5 9 1013.5 1013.5 0.0
02/04:30pm 11.2 8.6 4.4 63 3.1 WNW 7 17 4 9 1013.2 1013.2 0.0
02/04:00pm 12.2 9.3 4.7 60 3.4 WNW 9 22 5 12 1012.9 1012.9 0.0
02/03:30pm 13.0 10.2 5.2 59 3.6 NW 9 20 5 11 1012.7 1012.7 0.0
02/03:00pm 13.0 10.3 5.4 60 3.5 WNW 9 26 5 14 1012.4 1012.4 0.0
02/02:30pm 12.9 9.9 5.8 62 3.3 NW 11 24 6 13 1012.1 1012.1 0.0
02/02:00pm 12.7 9.0 4.7 58 3.7 NW 13 30 7 16 1012.1 1012.1 0.0
02/01:30pm 12.7 9.0 4.7 58 3.7 WNW 13 28 7 15 1012.1 1012.1 0.0
02/01:00pm 13.1 10.3 5.0 58 3.8 WNW 9 22 5 12 1011.9 1011.9 0.0
02/12:30pm 12.8 9.4 5.7 62 3.3 WNW 13 26 7 14 1011.9 1011.9 0.0
02/12:00pm 13.0 10.0 5.9 62 3.4 NW 11 24 6 13 1011.9 1011.9 0.0
02/11:30am 12.5 9.4 5.7 63 3.2 NW 11 32 6 17 1011.9 1011.9 0.0
02/11:00am 12.2 8.7 5.4 63 3.2 WNW 13 24 7 13 1011.8 1011.8 0.0
02/10:30am 12.0 8.5 5.6 65 3.0 NW 13 28 7 15 1011.6 1011.6 0.0
02/10:00am 11.7 8.2 5.6 66 2.8 NW 13 28 7 15 1011.2 1011.2 0.0
02/09:30am 11.4 8.0 5.7 68 2.6 NW 13 26 7 14 1010.6 1010.6 0.0
02/09:00am 10.7 7.7 6.1 73 2.1 NW 11 28 6 15 1010.4 1010.4 2.8
02/08:30am 10.3 7.6 5.7 73 2.1 NW 9 20 5 11 1010.1 1010.1 2.8
02/08:00am 10.5 6.7 5.9 73 2.1 NW 15 26 8 14 1009.8 1009.8 2.8
02/07:30am 10.6 6.7 5.4 70 2.4 NW 15 26 8 14 1009.3 1009.3 2.8
02/07:00am 10.7 7.6 5.7 71 2.3 NW 11 30 6 16 1009.0 1009.0 2.8
02/06:30am 10.6 7.6 5.8 72 2.2 NW 11 24 6 13 1008.3 1008.3 2.8
02/06:00am 10.4 7.4 6.0 74 2.0 NW 11 26 6 14 1007.7 1007.7 2.8
02/05:30am 10.5 6.8 6.1 74 2.0 NW 15 33 8 18 1006.9 1006.9 2.8
02/05:00am 10.4 6.3 6.2 75 2.0 NW 17 30 9 16 1006.2 1006.2 2.8
02/04:30am 10.7 5.3 6.3 74 2.1 NNW 24 41 13 22 1005.9 1005.9 2.8
02/04:00am 10.6 6.2 6.6 76 1.9 NNW 19 32 10 17 1005.8 1005.8 2.8
02/03:30am 10.3 5.8 7.0 80 1.6 NNW 20 32 11 17 1005.4 1005.4 2.8
02/03:00am 10.0 5.6 7.6 85 1.2 NNW 20 30 11 16 1005.8 1005.8 2.8
02/02:30am 9.6 6.4 7.0 84 1.2 NW 13 24 7 13 1005.4 1005.4 2.4
02/02:00am 9.9 6.8 7.3 84 1.2 WNW 13 24 7 13 1005.3 1005.3 1.4
02/01:30am 10.6 7.0 6.9 78 1.8 W 15 30 8 16 1005.5 1005.5 0.6
02/01:00am 14.4 10.7 7.9 65 3.2 NW 17 30 9 16 1004.3 1004.3 0.0
02/12:30am 14.3 7.5 7.8 65 3.2 NNW 33 43 18 23 1004.0 1004.0 0.0
02/12:08am 15.1 9.2 7.6 61 3.7 N 28 52 15 28 1004.3 1004.3 0.0
02/12:00am 13.8 9.7 7.8 67 3.0 N 19 28 10 15 1004.4 1004.4 0.0
 
Date/Time
EST
Temp
°C
App
Temp
°C
Dew
Point
°C
Rel
Hum
%
Delta-T
°C
Wind Press
QNH
hPa
Press
MSL
hPa
Rain since
9am
mm
Dir  Spd
km/h
Gust
km/h
Spd
kts
Gust
kts
01/11:30pm 14.0 10.1 7.3 64 3.3 NNE 17 24 9 13 1004.2 1004.2 0.0
01/11:00pm 14.8 6.7 6.9 59 3.9 N 39 52 21 28 1005.1 1005.1 0.0
01/10:50pm 14.3 9.4 6.9 61 3.6 NNW 22 44 12 24 1005.7 1005.7 0.0
01/10:30pm 13.2 10.6 6.1 62 3.4 W 9 17 5 9 1006.1 1006.1 0.0
01/10:00pm 13.7 9.6 6.3 61 3.6 NNE 17 24 9 13 1004.4 1004.4 0.0
01/09:30pm 13.4 9.0 6.5 63 3.3 NNE 19 28 10 15 1004.4 1004.4 0.0
01/09:00pm 12.7 9.3 6.1 64 3.1 NNE 13 19 7 10 1005.8 1005.8 0.0
01/08:30pm 12.3 9.3 5.9 65 3.0 NNE 11 19 6 10 1006.3 1006.3 0.0
01/08:00pm 12.7 9.2 5.6 62 3.3 NNE 13 20 7 11 1006.6 1006.6 0.0
01/07:30pm 13.2 8.6 5.6 60 3.6 N 19 28 10 15 1006.6 1006.6 0.0
01/07:00pm 13.6 8.5 6.0 60 3.6 N 22 32 12 17 1007.1 1007.1 0.0
01/06:30pm 13.1 6.9 6.0 62 3.4 N 28 35 15 19 1007.4 1007.4 0.0
01/06:00pm 13.7 6.6 5.6 58 3.8 N 32 39 17 21 1007.7 1007.7 0.0
01/05:30pm 13.6 9.4 5.7 59 3.7 N 17 24 9 13 1008.1 1008.1 0.0
01/05:00pm 14.7 9.0 4.7 51 4.7 N 24 33 13 18 1008.3 1008.3 0.0
01/04:30pm 14.8 10.0 4.8 51 4.7 N 19 30 10 16 1008.4 1008.4 0.0
01/04:00pm 15.6 8.3 4.6 48 5.2 N 32 37 17 20 1008.9 1008.9 0.0
01/03:30pm 16.2 10.1 4.6 46 5.5 N 26 33 14 18 1009.3 1009.3 0.0
01/03:00pm 16.1 9.9 6.0 51 4.9 NNW 28 37 15 20 1009.7 1009.7 0.0
01/02:30pm 16.7 9.9 5.0 46 5.6 N 30 43 16 23 1009.8 1009.8 0.0
01/02:00pm 16.2 11.9 7.7 57 4.3 N 20 28 11 15 1010.3 1010.3 0.0
01/01:30pm 15.7 11.7 8.2 61 3.8 N 19 22 10 12 1010.8 1010.8 0.0
01/01:00pm 15.9 14.4 9.1 64 3.5 NNE 7 11 4 6 1011.3 1011.3 0.0
01/12:30pm 14.8 12.6 7.8 63 3.5 NNE 9 15 5 8 1011.9 1011.9 0.0
01/12:00pm 15.6 14.4 9.5 67 3.2 NNE 6 9 3 5 1012.6 1012.6 0.0
01/11:30am 14.3 12.3 8.5 68 2.9 NE 9 11 5 6 1013.4 1013.4 0.0
01/11:00am 13.9 11.6 9.1 73 2.4 NE 11 15 6 8 1013.9 1013.9 0.0
01/10:30am 13.7 11.2 9.6 76 2.1 NE 13 15 7 8 1014.4 1014.4 0.0
01/10:00am 12.8 10.4 8.7 76 2.0 N 11 15 6 8 1014.8 1014.8 0.0
01/09:30am 12.2 9.3 8.3 77 1.9 N 13 15 7 8 1015.0 1015.0 0.0
01/09:00am 11.6 9.2 8.6 82 1.5 NNW 11 17 6 9 1015.2 1015.2 0.2
01/08:30am 11.1 9.1 8.7 85 1.2 NNW 9 13 5 7 1015.4 1015.4 0.2
01/08:00am 10.2 8.2 8.5 89 0.8 NNW 9 13 5 7 1015.5 1015.5 0.2
01/07:30am 8.0 6.4 6.5 90 0.7 NNW 4 6 2 3 1015.6 1015.6 0.2
01/07:00am 8.5 7.8 7.0 90 0.7 CALM 0 0 0 0 1015.4 1015.4 0.2
01/06:30am 8.8 7.4 7.3 90 0.7 NNW 4 6 2 3 1015.1 1015.1 0.2
01/06:00am 9.0 7.2 7.3 89 0.8 NE 6 7 3 4 1015.0 1015.0 0.2
01/05:30am 7.8 6.9 5.9 88 0.9 CALM 0 4 0 2 1015.0 1015.0 0.2
01/05:00am 8.3 7.5 6.4 88 0.9 CALM 0 2 0 1 1015.1 1015.1 0.2
01/04:30am 8.4 7.5 6.2 86 1.0 CALM 0 0 0 0 1015.3 1015.3 0.2
01/04:00am 9.2 8.0 6.6 84 1.2 NNE 2 4 1 2 1015.2 1015.2 0.2
01/03:30am 9.7 7.3 6.8 82 1.4 NE 9 13 5 7 1015.3 1015.3 0.2
01/03:00am 10.1 6.9 7.0 81 1.5 NE 13 19 7 10 1015.4 1015.4 0.2
01/02:30am 10.1 7.1 7.5 84 1.2 ENE 13 15 7 8 1015.8 1015.8 0.2
01/02:00am 9.9 7.5 7.0 82 1.4 NE 9 11 5 6 1016.1 1016.1 0.2
01/01:30am 10.7 9.2 6.8 77 1.8 NNE 4 7 2 4 1016.2 1016.2 0.2
01/01:00am 12.4 8.1 7.1 70 2.5 N 19 26 10 14 1016.0 1016.0 0.2
01/12:30am 11.1 9.3 7.0 76 2.0 NW 6 11 3 6 1016.7 1016.7 0.2
01/12:00am 11.5 9.7 7.0 74 2.1 N 6 9 3 5 1016.8 1016.8 0.2
 
Date/Time
EST
Temp
°C
App
Temp
°C
Dew
Point
°C
Rel
Hum
%
Delta-T
°C
Wind Press
QNH
hPa
Press
MSL
hPa
Rain since
9am
mm
Dir  Spd
km/h
Gust
km/h
Spd
kts
Gust
kts
30/11:30pm 11.8 9.1 7.5 75 2.1 N 11 19 6 10 1017.0 1017.0 0.2
30/11:00pm 12.1 8.4 7.8 75 2.1 NNW 17 19 9 10 1017.3 1017.3 0.2
30/10:30pm 11.9 10.0 7.4 74 2.2 NNW 7 11 4 6 1017.5 1017.5 0.2
30/10:00pm 12.0 11.0 7.3 73 2.3 NW 2 7 1 4 1017.6 1017.6 0.2
30/09:30pm 12.4 11.0 7.1 70 2.6 W 4 7 2 4 1017.6 1017.6 0.2
30/09:00pm 12.7 9.2 7.2 69 2.7 NNW 15 19 8 10 1017.3 1017.3 0.2
30/08:30pm 12.7 10.6 6.5 66 3.0 NNW 7 13 4 7 1017.1 1017.1 0.2
30/08:00pm 12.7 10.5 5.4 61 3.4 NW 6 11 3 6 1017.1 1017.1 0.2
30/07:30pm 12.9 10.7 5.1 59 3.6 WNW 6 11 3 6 1017.2 1017.2 0.2
30/07:00pm 13.3 10.3 6.2 62 3.4 NW 11 20 6 11 1016.8 1016.8 0.2
30/06:30pm 13.4 9.6 6.0 61 3.5 NNW 15 26 8 14 1016.6 1016.6 0.2
30/06:00pm 13.5 8.9 6.4 62 3.4 NNW 20 28 11 15 1016.2 1016.2 0.2
30/05:30pm 13.4 8.4 6.3 62 3.4 NNW 22 32 12 17 1016.0 1016.0 0.2
30/05:00pm 13.4 10.5 6.5 63 3.3 N 11 20 6 11 1015.3 1015.3 0.2
30/04:30pm 13.8 9.4 6.4 61 3.5 N 19 22 10 12 1015.4 1015.4 0.2
30/04:00pm 14.1 8.6 6.0 58 3.9 N 24 32 13 17 1015.2 1015.2 0.2
30/03:30pm 14.0 9.5 5.9 58 3.8 N 19 30 10 16 1015.1 1015.1 0.2
30/03:00pm 14.0 7.7 5.9 58 3.8 N 28 33 15 18 1015.3 1015.3 0.2
30/02:30pm 14.2 7.5 5.8 57 4.0 N 30 43 16 23 1015.5 1015.5 0.2
30/02:00pm 14.8 7.5 5.3 53 4.5 N 33 44 18 24 1015.9 1015.9 0.2
30/01:30pm 14.5 10.0 6.3 58 3.9 NNE 19 35 10 19 1016.3 1016.3 0.2
30/01:00pm 13.1 10.5 7.8 70 2.6 NNE 11 20 6 11 1017.2 1017.2 0.2
30/12:30pm 12.6 8.7 8.5 76 2.0 NE 19 20 10 11 1017.3 1017.3 0.2
30/12:00pm 12.1 7.9 7.4 73 2.3 NE 19 20 10 11 1017.9 1017.9 0.2
30/11:30am 12.3 9.8 6.6 68 2.7 NNE 9 15 5 8 1018.6 1018.6 0.2
30/11:00am 11.9 8.2 6.4 69 2.6 N 15 19 8 10 1019.2 1019.2 0.2
30/10:30am 11.4 7.4 6.5 72 2.3 NE 17 20 9 11 1019.5 1019.5 0.2
30/10:00am 10.8 6.2 6.4 74 2.1 NE 20 22 11 12 1019.9 1019.9 0.2
30/09:30am 10.6 5.2 6.2 74 2.0 NE 24 28 13 15 1020.0 1020.0 0.2
30/09:00am 9.5 3.7 6.4 81 1.4 NE 26 30 14 16 1020.2 1020.2 0.0
30/08:30am 8.3 2.8 6.1 86 1.0 ENE 24 28 13 15 1020.4 1020.4 0.0
30/08:00am 7.8 2.7 5.9 88 0.9 ENE 22 28 12 15 1020.9 1020.9 0.0
30/07:30am 7.5 1.9 5.6 88 0.9 ENE 24 30 13 16 1020.5 1020.5 0.0
30/07:00am 7.5 2.7 5.6 88 0.8 ENE 20 24 11 13 1020.5 1020.5 0.0
30/06:30am 7.8 2.6 5.6 86 1.0 ENE 22 26 12 14 1020.5 1020.5 0.0
30/06:00am 8.1 3.5 5.6 84 1.1 ENE 19 22 10 12 1020.7 1020.7 0.0
30/05:30am 8.0 4.8 4.9 81 1.4 NE 11 17 6 9 1021.0 1021.0 0.0
30/05:00am 8.2 5.4 5.3 82 1.3 NNE 9 15 5 8 1021.1 1021.1 0.0
30/04:30am 7.6 4.8 5.2 85 1.1 NNE 9 13 5 7 1020.9 1020.9 0.0
30/04:00am 7.5 4.0 5.3 86 1.0 NE 13 15 7 8 1021.2 1021.2 0.0
30/03:30am 7.6 4.1 5.4 86 1.0 NNE 13 19 7 10 1021.5 1021.5 0.0
30/03:00am 7.6 2.8 5.4 86 1.0 ENE 20 24 11 13 1021.8 1021.8 0.0
30/02:30am 8.1 3.0 5.9 86 1.0 NE 22 28 12 15 1022.0 1022.0 0.0
30/02:00am 7.8 3.2 5.6 86 1.0 ENE 19 24 10 13 1022.3 1022.3 0.0
30/01:30am 7.9 3.3 5.7 86 1.0 ENE 19 22 10 12 1022.6 1022.6 0.0
30/01:00am 7.9 3.6 5.4 84 1.1 NE 17 22 9 12 1022.8 1022.8 0.0
30/12:30am 8.3 3.5 5.8 84 1.1 NE 20 24 11 13 1023.0 1023.0 0.0
30/12:00am 8.2 3.1 5.8 85 1.1 ENE 22 26 12 14 1023.2 1023.2 0.0
 
Date/Time
EST
Temp
°C
App
Temp
°C
Dew
Point
°C
Rel
Hum
%
Delta-T
°C
Wind Press
QNH
hPa
Press
MSL
hPa
Rain since
9am
mm
Dir  Spd
km/h
Gust
km/h
Spd
kts
Gust
kts
29/11:30pm 8.4 2.9 6.0 85 1.1 NE 24 30 13 16 1023.1 1023.1 0.0

Latest Capital City Observations: Canberra | Sydney | Melbourne | Brisbane | Adelaide | Perth | Hobart | Darwin

Other formats

Comma delimited format used in spreadsheet applications
http://www.bom.gov.au/fwo/IDV60901/IDV60901.94892.axf

JavaScript Object Notation format (JSON) in row-major order
http://www.bom.gov.au/fwo/IDV60901/IDV60901.94892.json

Data quality

Most of these data are generated automatically and are frequently updated. Quality checks on data are not normally performed. It is possible for incorrect values to appear. Refer to information at About Latest Weather Observations and please check the disclaimer before using these data.